createdAt,value
2023-03-02T00:01:48.901Z,54.89
2023-03-02T00:04:21.314Z,55.19
2023-03-02T00:06:49.106Z,54.36
2023-03-02T00:09:17.001Z,55.35
2023-03-02T00:11:45.369Z,55.51
2023-03-02T00:14:12.081Z,55.53
2023-03-02T00:16:40.199Z,55.21
2023-03-02T00:19:06.978Z,55.59
2023-03-02T00:21:33.679Z,55.81
2023-03-02T00:24:00.444Z,54.72
2023-03-02T00:26:27.128Z,55.51
2023-03-02T00:28:53.954Z,55.92
2023-03-02T00:31:21.000Z,56.67
2023-03-02T00:33:48.758Z,56.72
2023-03-02T00:36:19.153Z,56.43
2023-03-02T00:38:45.964Z,56.65
2023-03-02T00:41:13.917Z,56.65
2023-03-02T00:43:40.957Z,56.21
2023-03-02T00:46:11.726Z,56.77
2023-03-02T00:48:38.515Z,56.42
2023-03-02T00:51:07.091Z,56.16
2023-03-02T00:53:35.129Z,56.77
2023-03-02T00:56:03.125Z,56.62
2023-03-02T00:58:32.071Z,56.68
2023-03-02T01:01:00.129Z,57.80
2023-03-02T01:03:27.264Z,57.79
2023-03-02T01:05:55.340Z,58.03
2023-03-02T01:08:23.461Z,58.50
2023-03-02T01:10:50.275Z,57.47
2023-03-02T01:13:18.115Z,59.07
2023-03-02T01:15:44.991Z,58.89
2023-03-02T01:18:13.109Z,58.81
2023-03-02T01:20:39.869Z,59.95
2023-03-02T01:23:06.648Z,59.99
2023-03-02T01:25:33.413Z,59.87
2023-03-02T01:28:00.298Z,59.98
2023-03-02T01:30:27.670Z,59.70
2023-03-02T01:32:54.384Z,59.38
2023-03-02T01:35:21.172Z,59.38
2023-03-02T01:37:47.859Z,59.16
2023-03-02T01:40:14.762Z,59.63
2023-03-02T01:42:50.544Z,60.16
2023-03-02T01:45:55.237Z,60.21
2023-03-02T01:48:52.728Z,62.56
2023-03-02T01:51:29.049Z,61.55
2023-03-02T01:54:06.763Z,61.86
2023-03-02T01:56:36.573Z,60.47
2023-03-02T01:59:09.744Z,61.36
2023-03-02T02:01:38.591Z,61.18
2023-03-02T02:04:06.472Z,60.40
2023-03-02T02:06:48.171Z,61.88
2023-03-02T02:09:17.503Z,62.42
2023-03-02T02:11:44.371Z,62.49
2023-03-02T02:14:11.342Z,62.20
2023-03-02T02:16:38.808Z,61.17
2023-03-02T02:19:16.096Z,62.11
2023-03-02T02:21:42.865Z,61.99
2023-03-02T02:24:28.712Z,62.87
2023-03-02T02:26:56.401Z,62.37
2023-03-02T02:29:38.637Z,63.23
2023-03-02T02:32:14.645Z,62.40
2023-03-02T02:34:46.511Z,62.16
2023-03-02T02:37:22.844Z,62.88
2023-03-02T02:39:50.457Z,62.93
2023-03-02T02:42:23.989Z,64.03
2023-03-02T02:44:51.946Z,63.33
2023-03-02T02:47:20.242Z,64.22
2023-03-02T02:49:49.073Z,64.36
2023-03-02T02:52:18.355Z,63.59
2023-03-02T02:54:49.322Z,65.48
2023-03-02T02:57:17.899Z,66.31
2023-03-02T02:59:49.565Z,65.05
2023-03-02T03:02:26.116Z,66.41
2023-03-02T03:05:02.505Z,67.23
2023-03-02T03:07:32.283Z,67.18
2023-03-02T03:10:19.125Z,66.58
2023-03-02T03:12:46.623Z,67.84
2023-03-02T03:15:14.278Z,67.01
2023-03-02T03:17:41.038Z,67.81
2023-03-02T03:20:09.363Z,67.12
2023-03-02T03:22:40.811Z,67.63
2023-03-02T03:25:10.111Z,67.33
2023-03-02T03:27:36.793Z,67.75
2023-03-02T03:30:05.522Z,68.15
2023-03-02T03:32:35.487Z,68.71
2023-03-02T03:35:03.654Z,67.38
2023-03-02T03:37:32.579Z,68.61
2023-03-02T03:39:59.887Z,69.25
2023-03-02T03:42:27.035Z,70.11
2023-03-02T03:44:55.188Z,69.38
2023-03-02T03:47:22.483Z,69.59
2023-03-02T03:49:50.569Z,70.21
2023-03-02T03:52:17.633Z,70.52
2023-03-02T03:54:44.527Z,70.51
2023-03-02T03:57:12.415Z,69.66
2023-03-02T03:59:39.880Z,69.65
2023-03-02T04:02:06.879Z,72.11
2023-03-02T04:04:39.963Z,70.94
2023-03-02T04:07:11.545Z,70.06
2023-03-02T04:09:39.290Z,70.12
2023-03-02T04:12:08.935Z,69.49
2023-03-02T04:14:36.681Z,70.14
2023-03-02T04:17:05.472Z,70.10
2023-03-02T04:19:35.801Z,68.68
2023-03-02T04:22:04.229Z,70.97
2023-03-02T04:24:32.431Z,70.98
2023-03-02T04:27:02.025Z,73.91
2023-03-02T04:29:29.657Z,72.98
2023-03-02T04:31:56.787Z,73.90
2023-03-02T04:34:26.467Z,75.37
2023-03-02T04:36:53.762Z,73.31
2023-03-02T04:39:20.986Z,73.19
2023-03-02T04:41:51.279Z,74.43
2023-03-02T04:44:18.790Z,76.33
2023-03-02T04:46:46.591Z,76.63
2023-03-02T04:49:15.200Z,74.83
2023-03-02T04:51:44.967Z,76.60
2023-03-02T04:54:17.008Z,76.13
2023-03-02T04:56:43.837Z,75.10
2023-03-02T04:59:10.630Z,76.13
2023-03-02T05:01:37.482Z,75.98
2023-03-02T05:04:04.638Z,76.47
2023-03-02T05:06:31.890Z,76.86
2023-03-02T05:09:00.204Z,75.61
2023-03-02T05:11:27.023Z,76.57
2023-03-02T05:13:56.194Z,80.79
2023-03-02T05:16:24.287Z,81.61
2023-03-02T05:18:51.734Z,81.89
2023-03-02T05:21:19.120Z,80.32
2023-03-02T05:23:47.116Z,82.01
2023-03-02T05:26:14.850Z,81.71
2023-03-02T05:28:42.150Z,81.56
2023-03-02T05:31:10.162Z,79.93
2023-03-02T05:33:36.859Z,79.23
2023-03-02T05:36:03.762Z,80.80
2023-03-02T05:38:31.724Z,79.93
2023-03-02T05:40:58.506Z,78.93
2023-03-02T05:43:25.239Z,78.49
2023-03-02T05:45:52.004Z,78.05
2023-03-02T05:48:18.864Z,77.80
2023-03-02T05:50:45.619Z,77.79
2023-03-02T05:53:12.387Z,77.92
2023-03-02T05:55:39.091Z,78.58
2023-03-02T05:58:13.052Z,76.12
2023-03-02T06:00:40.019Z,77.72
2023-03-02T06:03:06.721Z,77.43
2023-03-02T06:05:33.487Z,78.00
2023-03-02T06:08:00.479Z,77.09
2023-03-02T06:10:27.565Z,78.62
2023-03-02T06:12:54.495Z,79.26
2023-03-02T06:15:21.230Z,78.72
2023-03-02T06:17:48.377Z,78.01
2023-03-02T06:20:15.652Z,77.99
2023-03-02T06:22:47.050Z,78.58
2023-03-02T06:25:17.997Z,78.13
2023-03-02T06:27:45.045Z,77.55
2023-03-02T06:30:15.607Z,78.23
2023-03-02T06:32:43.258Z,77.13
2023-03-02T06:35:10.784Z,78.06
2023-03-02T06:37:37.553Z,78.53
2023-03-02T06:40:08.849Z,79.75
2023-03-02T06:42:35.827Z,79.47
2023-03-02T06:45:02.675Z,79.22
2023-03-02T06:47:29.459Z,79.78
2023-03-02T06:49:57.066Z,77.36
2023-03-02T06:52:23.877Z,79.49
2023-03-02T06:54:50.523Z,79.07
2023-03-02T06:57:17.247Z,77.79
2023-03-02T06:59:43.909Z,77.32
2023-03-02T07:02:11.436Z,77.00
2023-03-02T07:04:38.297Z,79.04
2023-03-02T07:07:05.446Z,78.57
2023-03-02T07:09:35.202Z,77.16
2023-03-02T07:12:02.145Z,76.53
2023-03-02T07:14:29.002Z,75.78
2023-03-02T07:16:57.579Z,76.81
2023-03-02T07:19:24.609Z,78.38
2023-03-02T07:21:51.312Z,78.59
2023-03-02T07:24:18.093Z,77.91
2023-03-02T07:26:44.944Z,78.02
2023-03-02T07:29:11.775Z,78.38
2023-03-02T07:31:39.710Z,78.24
2023-03-02T07:34:06.464Z,76.70
2023-03-02T07:36:33.172Z,77.07
2023-03-02T07:38:59.818Z,75.58
2023-03-02T07:41:26.591Z,77.85
2023-03-02T07:43:53.342Z,77.12
2023-03-02T07:46:20.181Z,77.24
2023-03-02T07:48:46.987Z,77.93
2023-03-02T07:51:13.777Z,76.71
2023-03-02T07:53:40.452Z,76.46
2023-03-02T07:56:09.296Z,82.15
2023-03-02T07:58:37.886Z,86.18
2023-03-02T08:01:05.027Z,83.42
2023-03-02T08:03:31.768Z,78.63
2023-03-02T08:05:58.516Z,61.97
2023-03-02T08:08:25.228Z,50.63
2023-03-02T08:10:52.676Z,43.07
2023-03-02T08:13:19.489Z,40.38
2023-03-02T08:15:46.338Z,37.13
2023-03-02T08:18:16.945Z,37.38
2023-03-02T08:20:46.596Z,38.15
2023-03-02T08:23:13.357Z,35.99
2023-03-02T08:25:42.986Z,38.27
2023-03-02T08:28:09.818Z,36.63
2023-03-02T08:30:36.591Z,37.34
2023-03-02T08:33:06.965Z,37.36
2023-03-02T08:35:34.043Z,37.23
2023-03-02T08:38:00.887Z,36.96
2023-03-02T08:40:27.721Z,37.91
2023-03-02T08:42:57.530Z,39.41
2023-03-02T08:45:24.689Z,42.07
2023-03-02T08:47:54.194Z,45.50
2023-03-02T08:50:21.674Z,45.19
2023-03-02T08:52:49.982Z,45.01
2023-03-02T08:55:18.654Z,46.76
2023-03-02T08:57:45.424Z,47.66
2023-03-02T09:00:14.845Z,48.45
2023-03-02T09:02:41.878Z,49.04
2023-03-02T09:05:09.191Z,49.30
2023-03-02T09:07:36.065Z,50.42
2023-03-02T09:10:03.105Z,51.50
2023-03-02T09:12:30.011Z,51.61
2023-03-02T09:14:56.794Z,53.27
2023-03-02T09:17:23.546Z,55.35
2023-03-02T09:19:50.284Z,57.45
2023-03-02T09:22:17.613Z,56.64
2023-03-02T09:24:44.334Z,53.13
2023-03-02T09:27:11.693Z,54.81
2023-03-02T09:29:38.708Z,54.18
2023-03-02T09:32:05.917Z,52.23
2023-03-02T09:34:32.774Z,55.79
2023-03-02T09:36:59.535Z,57.76
2023-03-02T09:39:26.399Z,57.65
2023-03-02T09:42:08.374Z,55.26
2023-03-02T09:44:56.665Z,55.05
2023-03-02T09:47:36.085Z,55.64
2023-03-02T09:50:12.118Z,55.17
2023-03-02T09:52:45.123Z,53.84
2023-03-02T09:55:28.884Z,53.37
2023-03-02T09:57:56.138Z,52.56
2023-03-02T10:00:31.250Z,53.15
2023-03-02T10:03:16.667Z,52.66
2023-03-02T10:05:49.816Z,54.09
2023-03-02T10:08:29.933Z,53.59
2023-03-02T10:11:08.858Z,52.93
2023-03-02T10:13:49.291Z,51.40
2023-03-02T10:16:23.962Z,53.17
2023-03-02T10:19:05.865Z,52.14
2023-03-02T10:21:40.666Z,52.35
2023-03-02T10:24:21.750Z,52.04
2023-03-02T10:26:53.727Z,51.62
2023-03-02T10:29:20.396Z,52.45
2023-03-02T10:31:50.003Z,52.55
2023-03-02T10:34:16.748Z,51.94
2023-03-02T10:36:47.641Z,53.09
2023-03-02T10:39:15.943Z,54.42
2023-03-02T10:41:53.554Z,52.74
2023-03-02T10:44:32.193Z,53.24
2023-03-02T10:46:59.385Z,53.43
2023-03-02T10:49:36.658Z,53.45
2023-03-02T10:52:13.374Z,53.32
2023-03-02T10:54:40.279Z,52.58
2023-03-02T10:57:39.937Z,53.61
2023-03-02T11:00:21.978Z,53.79
2023-03-02T11:03:12.238Z,53.34
2023-03-02T11:05:40.075Z,52.84
2023-03-02T11:08:10.195Z,52.07
2023-03-02T11:10:42.195Z,52.64
2023-03-02T11:13:23.805Z,52.52
2023-03-02T11:15:52.343Z,52.36
2023-03-02T11:18:37.176Z,51.65
2023-03-02T11:21:06.985Z,52.37
2023-03-02T11:23:33.766Z,53.35
2023-03-02T11:26:06.604Z,52.68
2023-03-02T11:28:49.770Z,51.31
2023-03-02T11:31:43.224Z,52.68
2023-03-02T11:34:18.335Z,52.14
2023-03-02T11:37:03.825Z,52.19
2023-03-02T11:39:59.188Z,52.48
2023-03-02T11:42:29.536Z,51.64
2023-03-02T11:44:57.122Z,51.98
2023-03-02T11:47:24.051Z,52.04
2023-03-02T11:50:01.932Z,51.67
2023-03-02T11:52:31.076Z,50.89
2023-03-02T11:55:06.944Z,51.89
2023-03-02T11:57:38.684Z,50.43
2023-03-02T12:00:34.102Z,50.91
2023-03-02T12:03:03.697Z,51.41
2023-03-02T12:05:36.478Z,50.40
2023-03-02T12:08:07.102Z,51.29
2023-03-02T12:10:42.584Z,52.03
2023-03-02T12:13:21.690Z,51.96
2023-03-02T12:15:56.017Z,51.17
2023-03-02T12:18:22.860Z,50.76
2023-03-02T12:21:00.975Z,51.13
2023-03-02T12:23:29.044Z,51.32
2023-03-02T12:26:25.580Z,52.33
2023-03-02T12:29:15.757Z,50.57
2023-03-02T12:31:54.773Z,50.96
2023-03-02T12:34:26.466Z,50.76
2023-03-02T12:37:00.674Z,51.74
2023-03-02T12:39:30.801Z,51.79
2023-03-02T12:42:06.441Z,50.81
2023-03-02T12:45:02.453Z,50.32
2023-03-02T12:47:30.250Z,50.52
2023-03-02T12:50:01.314Z,50.83
2023-03-02T12:52:33.802Z,49.87
2023-03-02T12:55:21.370Z,50.65
2023-03-02T12:57:50.347Z,50.45
2023-03-02T13:00:20.385Z,48.90
2023-03-02T13:02:49.577Z,50.37
2023-03-02T13:05:25.210Z,51.12
2023-03-02T13:08:00.964Z,50.29
2023-03-02T13:10:42.123Z,50.26
2023-03-02T13:13:35.184Z,50.38
2023-03-02T13:16:06.152Z,50.27
2023-03-02T13:18:34.993Z,49.90
2023-03-02T13:21:03.682Z,50.06
2023-03-02T13:23:32.458Z,49.69
2023-03-02T13:26:01.818Z,50.20
2023-03-02T13:28:30.148Z,50.21
2023-03-02T13:31:04.298Z,50.29
2023-03-02T13:33:32.621Z,49.58
2023-03-02T13:35:59.702Z,49.34
2023-03-02T13:38:32.789Z,49.29
2023-03-02T13:40:59.561Z,49.49
2023-03-02T13:43:26.364Z,49.89
2023-03-02T13:45:58.814Z,49.53
2023-03-02T13:48:27.804Z,49.51
2023-03-02T13:51:15.320Z,49.37
2023-03-02T13:53:46.504Z,49.25
2023-03-02T13:56:15.242Z,49.98
2023-03-02T13:58:42.086Z,49.65
2023-03-02T14:01:11.254Z,49.72
2023-03-02T14:03:37.916Z,49.57
2023-03-02T14:06:06.151Z,49.63
2023-03-02T14:08:32.918Z,49.08
2023-03-02T14:11:01.237Z,49.21
2023-03-02T14:13:51.123Z,48.63
2023-03-02T14:16:18.083Z,49.34
2023-03-02T14:18:47.183Z,48.97
2023-03-02T14:21:19.230Z,49.09
2023-03-02T14:23:46.873Z,48.77
2023-03-02T14:26:32.071Z,49.58
2023-03-02T14:29:10.704Z,49.07
2023-03-02T14:31:37.590Z,48.47
2023-03-02T14:34:04.310Z,48.52
2023-03-02T14:36:33.600Z,48.80
2023-03-02T14:39:04.168Z,48.72
2023-03-02T14:41:34.338Z,48.90
2023-03-02T14:44:05.184Z,48.86
2023-03-02T14:46:31.993Z,49.13
2023-03-02T14:48:58.838Z,48.69
2023-03-02T14:51:27.453Z,48.88
2023-03-02T14:53:55.481Z,49.26
2023-03-02T14:56:25.731Z,49.32
2023-03-02T14:58:53.328Z,48.71
2023-03-02T15:01:24.169Z,49.02
2023-03-02T15:03:50.971Z,49.25
2023-03-02T15:06:38.725Z,48.82
2023-03-02T15:09:05.769Z,48.87
2023-03-02T15:11:32.784Z,48.74
2023-03-02T15:13:59.822Z,49.01
2023-03-02T15:16:26.564Z,48.99
2023-03-02T15:18:53.980Z,49.05
2023-03-02T15:21:22.710Z,49.35
2023-03-02T15:23:49.662Z,49.49
2023-03-02T15:26:16.594Z,49.05
2023-03-02T15:28:45.767Z,49.77
2023-03-02T15:31:15.508Z,49.66
2023-03-02T15:33:43.238Z,49.06
2023-03-02T15:36:10.164Z,49.09
2023-03-02T15:38:37.203Z,49.46
2023-03-02T15:41:06.089Z,49.18
2023-03-02T15:43:33.146Z,48.81
2023-03-02T15:46:00.897Z,49.80
2023-03-02T15:48:29.034Z,49.96
2023-03-02T15:50:59.752Z,49.18
2023-03-02T15:53:27.155Z,49.11
2023-03-02T15:55:54.075Z,48.81
2023-03-02T15:58:22.050Z,49.15
2023-03-02T16:00:49.701Z,49.54
2023-03-02T16:03:16.908Z,50.05
2023-03-02T16:05:43.658Z,50.90
2023-03-02T16:08:10.550Z,50.55
2023-03-02T16:10:37.707Z,49.81
2023-03-02T16:13:05.916Z,49.64
2023-03-02T16:15:42.064Z,49.78
2023-03-02T16:18:10.087Z,49.78
2023-03-02T16:20:40.062Z,49.29
2023-03-02T16:23:08.245Z,49.93
2023-03-02T16:25:38.163Z,50.29
2023-03-02T16:28:04.975Z,50.67
2023-03-02T16:30:32.464Z,50.76
2023-03-02T16:33:00.759Z,50.62
2023-03-02T16:35:29.312Z,51.68
2023-03-02T16:37:56.197Z,50.80
2023-03-02T16:40:23.593Z,51.13
2023-03-02T16:42:51.171Z,50.39
2023-03-02T16:45:19.328Z,50.85
2023-03-02T16:47:46.554Z,51.60
2023-03-02T16:50:15.591Z,51.34
2023-03-02T16:52:42.578Z,52.18
2023-03-02T16:55:15.565Z,51.35
2023-03-02T16:57:43.083Z,50.84
2023-03-02T17:00:12.964Z,50.67
2023-03-02T17:02:39.914Z,50.62
2023-03-02T17:05:06.836Z,50.53
2023-03-02T17:07:34.120Z,51.56
2023-03-02T17:10:00.872Z,51.00
2023-03-02T17:12:27.810Z,51.13
2023-03-02T17:14:54.649Z,51.22
2023-03-02T17:17:21.510Z,50.98
2023-03-02T17:19:48.235Z,51.77
2023-03-02T17:22:15.244Z,51.27
2023-03-02T17:24:41.971Z,50.89
2023-03-02T17:27:23.804Z,50.52
2023-03-02T17:29:52.347Z,50.73
2023-03-02T17:32:19.424Z,50.41
2023-03-02T17:34:46.904Z,50.87
2023-03-02T17:37:14.130Z,50.62
2023-03-02T17:39:40.869Z,50.73
2023-03-02T17:42:10.185Z,50.94
2023-03-02T17:44:40.570Z,50.02
2023-03-02T17:47:10.022Z,50.25
2023-03-02T17:49:41.246Z,50.36
2023-03-02T17:52:07.988Z,50.51
2023-03-02T17:54:35.016Z,50.87
2023-03-02T17:57:05.117Z,50.67
2023-03-02T17:59:32.124Z,50.68
2023-03-02T18:01:58.979Z,51.15
2023-03-02T18:04:25.807Z,51.42
2023-03-02T18:06:54.119Z,50.76
2023-03-02T18:09:20.895Z,50.68
2023-03-02T18:11:48.576Z,51.43
2023-03-02T18:14:19.087Z,51.67
2023-03-02T18:16:46.481Z,51.33
2023-03-02T18:19:13.804Z,51.21
2023-03-02T18:21:41.867Z,51.59
2023-03-02T18:24:09.332Z,51.79
2023-03-02T18:26:36.231Z,51.66
2023-03-02T18:29:03.004Z,51.41
2023-03-02T18:31:31.438Z,51.82
2023-03-02T18:33:59.048Z,52.49
2023-03-02T18:36:25.748Z,52.29
2023-03-02T18:38:53.946Z,52.15
2023-03-02T18:41:22.107Z,52.66
2023-03-02T18:43:49.334Z,52.50
2023-03-02T18:46:24.994Z,51.82
2023-03-02T18:48:52.879Z,52.12
2023-03-02T18:51:22.657Z,51.70
2023-03-02T18:53:51.140Z,51.75
2023-03-02T18:56:18.618Z,51.72
2023-03-02T18:58:47.359Z,51.57
2023-03-02T19:01:14.186Z,51.65
2023-03-02T19:03:41.880Z,51.63
2023-03-02T19:06:09.115Z,51.13
2023-03-02T19:08:36.160Z,50.94
2023-03-02T19:11:04.719Z,51.41
2023-03-02T19:13:31.535Z,51.30
2023-03-02T19:15:58.737Z,51.91
2023-03-02T19:18:26.125Z,51.44
2023-03-02T19:20:54.338Z,51.54
2023-03-02T19:23:21.471Z,51.35
2023-03-02T19:25:49.801Z,51.67
2023-03-02T19:28:16.755Z,52.18
2023-03-02T19:30:43.692Z,52.02
2023-03-02T19:33:10.893Z,53.16
2023-03-02T19:35:38.674Z,53.68
2023-03-02T19:38:06.896Z,53.72
2023-03-02T19:40:35.026Z,54.82
2023-03-02T19:43:02.464Z,57.24
2023-03-02T19:45:32.564Z,58.33
2023-03-02T19:48:00.699Z,59.21
2023-03-02T19:50:28.878Z,60.99
2023-03-02T19:52:57.554Z,61.08
2023-03-02T19:55:25.361Z,64.39
2023-03-02T19:57:59.788Z,64.69
2023-03-02T20:00:31.870Z,68.53
2023-03-02T20:02:59.964Z,67.61
2023-03-02T20:05:27.877Z,69.22
2023-03-02T20:07:54.960Z,67.49
2023-03-02T20:10:41.516Z,68.38
2023-03-02T20:13:09.605Z,68.78
2023-03-02T20:15:39.113Z,72.65
2023-03-02T20:18:11.822Z,74.99
2023-03-02T20:20:39.465Z,78.73
2023-03-02T20:23:06.897Z,78.38
2023-03-02T20:25:34.213Z,81.15
2023-03-02T20:28:05.650Z,79.71
2023-03-02T20:30:40.143Z,79.96
2023-03-02T20:33:08.543Z,81.65
2023-03-02T20:35:39.880Z,81.16
2023-03-02T20:38:10.479Z,84.35
2023-03-02T20:40:37.436Z,86.52
2023-03-02T20:43:05.357Z,84.90
2023-03-02T20:45:33.424Z,88.14
2023-03-02T20:48:00.619Z,91.01
2023-03-02T20:50:30.167Z,91.31
2023-03-02T20:52:57.099Z,89.64
2023-03-02T20:55:26.216Z,87.52
2023-03-02T20:57:54.498Z,91.87
2023-03-02T21:00:24.204Z,91.04
2023-03-02T21:02:51.078Z,92.25
2023-03-02T21:05:18.766Z,94.08
2023-03-02T21:07:45.819Z,94.11
2023-03-02T21:10:16.887Z,96.87
2023-03-02T21:12:44.425Z,94.67
2023-03-02T21:15:12.316Z,93.00
2023-03-02T21:17:39.142Z,92.85
2023-03-02T21:20:06.666Z,92.75
2023-03-02T21:22:33.842Z,91.24
2023-03-02T21:25:00.630Z,90.21
2023-03-02T21:27:27.457Z,91.14
2023-03-02T21:29:54.107Z,91.05
2023-03-02T21:32:21.131Z,88.32
2023-03-02T21:34:47.862Z,89.30
2023-03-02T21:37:14.740Z,88.00
2023-03-02T21:39:41.518Z,86.56
2023-03-02T21:42:08.221Z,87.97
2023-03-02T21:44:34.999Z,88.34
2023-03-02T21:47:01.734Z,87.34
2023-03-02T21:49:28.613Z,88.25
2023-03-02T21:51:55.322Z,87.17
2023-03-02T21:54:22.113Z,87.47
2023-03-02T21:56:49.172Z,87.98
2023-03-02T21:59:15.914Z,88.85
2023-03-02T22:01:44.252Z,88.42
2023-03-02T22:04:11.626Z,90.67
2023-03-02T22:06:38.376Z,89.98
2023-03-02T22:09:05.213Z,90.97
2023-03-02T22:11:35.203Z,91.77
2023-03-02T22:14:10.659Z,92.29
2023-03-02T22:16:39.447Z,92.52
2023-03-02T22:19:20.533Z,92.26
2023-03-02T22:21:48.369Z,92.16
2023-03-02T22:24:27.218Z,93.75
2023-03-02T22:26:56.936Z,93.93
2023-03-02T22:29:41.858Z,96.17
2023-03-02T22:32:20.335Z,97.53
2023-03-02T22:34:53.087Z,95.32
2023-03-02T22:37:25.607Z,94.10
2023-03-02T22:39:58.460Z,94.32
2023-03-02T22:42:27.142Z,94.36
2023-03-02T22:45:15.893Z,96.53
2023-03-02T22:47:51.530Z,95.97
2023-03-02T22:50:26.917Z,96.09
2023-03-02T22:52:59.914Z,96.00
2023-03-02T22:55:42.961Z,95.44
2023-03-02T22:58:27.916Z,95.95
2023-03-02T23:01:04.318Z,95.68
2023-03-02T23:03:38.545Z,96.03
2023-03-02T23:06:33.876Z,97.29
2023-03-02T23:09:07.261Z,97.04
2023-03-02T23:11:37.732Z,98.48
2023-03-02T23:14:28.725Z,98.18
2023-03-02T23:17:01.047Z,100.00
2023-03-02T23:19:30.132Z,100.00
2023-03-02T23:21:58.226Z,100.00
2023-03-02T23:24:25.694Z,100.00
2023-03-02T23:26:55.782Z,100.00
2023-03-02T23:29:22.931Z,100.00
2023-03-02T23:31:50.469Z,99.99
2023-03-02T23:34:17.422Z,98.55
2023-03-02T23:36:44.203Z,100.00
2023-03-02T23:39:11.359Z,100.00
2023-03-02T23:41:39.046Z,100.00
2023-03-02T23:44:07.398Z,100.00
2023-03-02T23:46:34.721Z,100.00
2023-03-02T23:49:01.501Z,100.00
2023-03-02T23:51:28.220Z,100.00
2023-03-02T23:53:55.205Z,100.00
2023-03-02T23:56:22.253Z,100.00
2023-03-02T23:58:49.210Z,100.00
